logo
Search for airport 
image banner adimage banner adimage banner ad
image banner ad

YWEA - Wanella Station

Located in Coppabella, Australia

ICAO - , IATA -

Data provided by Airmate  

General information

Coordinates: S21°53'47" E148°22'11"
Elevation is 785 feet MSL.
Magnetic variation is 8° East
View others Airports in Queensland

Operational data

Special qualification required
Current time UTC:
Current local time:
Weather at : - ( 0 km )
METAR: KATL 101052Z 35004KT 10SM FEW008 BKN060 OVC090 16/14 A2991 RMK AO2 WSHFT 1009 RAB04E31 TSE18 SLP124 TS DSIPTD P0012 T01560139
TAF: KATL 101102Z 1011/1112 VRB03KT P6SM VCSH SCT025 BKN050 FM101200 17005KT 6SM -RA BR SCT008 BKN025 FM101300 30012G22KT 5SM -RA BR OVC006 FM101900 32016G27KT P6SM OVC012 FM110100 32017G28KT P6SM BKN025 FM110500 32013G23KT P6SM FEW020 SCT250
View NOTAMs / SUP AIP / TFR affecting this airport [VIEW]
Communications frequencies: [VIEW]

Runways:

RWY identifierQFULength (ft)Width (ft)SurfaceLDA (ft)
24251°373947ASPH
0671°373947ASPH

Airport contact information

Address: Coppabella Australia

Satellite view of YWEA